Time,TemperatureF,DewpointF,PressureIn,WindDirection,WindDirectionDegrees,WindSpeedMPH,WindSpeedGustMPH,Humidity,HourlyPrecipIn,Conditions,Clouds,dailyrainin,SoftwareType,DateUTC
2013-03-25 00:06:00,37.7,37.0,29.55,NE,46,0.0,1.0,96,0.00,,,1.11,weatherlink.com 1.10,2013-03-25 04:06:00,
2013-03-25 00:21:00,37.6,37.0,29.56,SSW,204,0.0,1.0,96,0.00,,,0.00,weatherlink.com 1.10,2013-03-25 04:21:00,
2013-03-25 00:36:00,37.2,36.0,29.56,SW,232,0.0,1.0,96,0.00,,,0.00,weatherlink.com 1.10,2013-03-25 04:36:00,
2013-03-25 00:51:00,37.1,36.0,29.56,SW,232,0.0,0.0,96,0.00,,,0.00,weatherlink.com 1.10,2013-03-25 04:51:00,
2013-03-25 01:06:00,37.0,36.0,29.56,SW,225,0.0,0.0,96,0.00,,,0.00,weatherlink.com 1.10,2013-03-25 05:06:00,
2013-03-25 01:21:00,36.9,36.0,29.56,SW,225,0.0,0.0,96,0.00,,,0.00,weatherlink.com 1.10,2013-03-25 05:21:00,
2013-03-25 01:36:00,37.1,36.0,29.57,North,360,0.0,2.0,96,0.00,,,0.00,weatherlink.com 1.10,2013-03-25 05:36:00,
2013-03-25 01:51:00,37.1,36.0,29.57,NW,318,0.0,2.0,96,0.00,,,0.00,weatherlink.com 1.10,2013-03-25 05:51:00,
2013-03-25 02:06:00,36.0,34.0,29.58,SW,235,1.0,4.0,91,0.00,,,0.00,weatherlink.com 1.10,2013-03-25 06:06:00,
2013-03-25 02:21:00,35.4,32.0,29.58,SSW,207,2.0,3.0,87,0.00,,,0.00,weatherlink.com 1.10,2013-03-25 06:21:00,
2013-03-25 02:36:00,35.1,31.0,29.58,SSW,208,1.0,3.0,86,0.00,,,0.00,weatherlink.com 1.10,2013-03-25 06:36:00,
2013-03-25 02:51:00,35.2,31.0,29.58,SSW,204,2.0,4.0,85,0.00,,,0.00,weatherlink.com 1.10,2013-03-25 06:51:00,
2013-03-25 03:07:00,35.5,31.0,29.58,SSW,199,0.0,3.0,84,0.00,,,0.00,weatherlink.com 1.10,2013-03-25 07:07:00,
2013-03-25 03:21:00,35.3,32.0,29.58,SW,224,0.0,1.0,87,0.00,,,0.00,weatherlink.com 1.10,2013-03-25 07:21:00,
2013-03-25 03:36:00,35.2,33.0,29.59,SW,215,0.0,1.0,90,0.00,,,0.00,weatherlink.com 1.10,2013-03-25 07:36:00,
2013-03-25 03:51:00,34.9,31.0,29.59,SW,217,0.0,2.0,87,0.00,,,0.00,weatherlink.com 1.10,2013-03-25 07:51:00,
2013-03-25 04:07:00,35.3,32.0,29.59,WSW,255,0.0,1.0,88,0.00,,,0.00,weatherlink.com 1.10,2013-03-25 08:07:00,
2013-03-25 04:21:00,35.2,32.0,29.59,WNW,293,1.0,2.0,89,0.00,,,0.00,weatherlink.com 1.10,2013-03-25 08:21:00,
2013-03-25 04:37:00,34.7,30.0,29.59,North,9,4.0,5.0,82,0.00,,,0.00,weatherlink.com 1.10,2013-03-25 08:37:00,
2013-03-25 04:52:00,34.3,28.0,29.60,North,357,3.0,5.0,77,0.00,,,0.00,weatherlink.com 1.10,2013-03-25 08:52:00,
2013-03-25 05:07:00,33.9,27.0,29.61,NNE,22,4.0,7.0,77,0.00,,,0.00,weatherlink.com 1.10,2013-03-25 09:07:00,
2013-03-25 05:22:00,33.6,27.0,29.61,NW,326,3.0,4.0,77,0.00,,,0.00,weatherlink.com 1.10,2013-03-25 09:22:00,
2013-03-25 05:37:00,33.2,26.0,29.61,NNW,329,2.0,4.0,75,0.00,,,0.00,weatherlink.com 1.10,2013-03-25 09:37:00,
2013-03-25 05:52:00,32.9,26.0,29.61,North,6,2.0,3.0,77,0.00,,,0.00,weatherlink.com 1.10,2013-03-25 09:52:00,
2013-03-25 06:07:00,32.6,26.0,29.62,North,356,2.0,3.0,76,0.00,,,0.00,weatherlink.com 1.10,2013-03-25 10:07:00,
2013-03-25 06:22:00,32.1,25.0,29.63,NNW,330,3.0,3.0,76,0.00,,,0.00,weatherlink.com 1.10,2013-03-25 10:22:00,
2013-03-25 06:28:00,31.9,25.2,29.63,North,349,3.0,7.0,76,0.00,,,0.00,Wunderground v.1.15,2013-03-25 10:28:00,
2013-03-25 06:33:00,31.8,24.8,29.63,NNW,345,3.0,7.0,75,0.00,,,0.00,Wunderground v.1.15,2013-03-25 10:33:00,
2013-03-25 06:39:00,31.7,25.0,29.64,NNW,332,3.0,7.0,76,0.00,,,0.00,Wunderground v.1.15,2013-03-25 10:39:00,
2013-03-25 06:45:00,31.6,24.9,29.64,NNW,330,2.0,7.0,76,0.00,,,0.00,Wunderground v.1.15,2013-03-25 10:45:00,
2013-03-25 06:50:00,31.3,24.9,29.64,NE,53,3.0,7.0,77,0.00,,,0.00,Wunderground v.1.15,2013-03-25 10:50:00,
2013-03-25 06:55:00,31.1,24.7,29.64,NNW,340,2.0,2.0,77,0.00,,,0.00,Wunderground v.1.15,2013-03-25 10:55:00,
2013-03-25 07:08:00,30.9,24.0,29.64,NNW,333,2.0,3.0,75,0.00,,,0.00,weatherlink.com 1.10,2013-03-25 11:08:00,
2013-03-25 07:23:00,31.0,24.0,29.65,NW,313,1.0,3.0,76,0.00,,,0.00,weatherlink.com 1.10,2013-03-25 11:23:00,
2013-03-25 07:38:00,30.7,23.0,29.66,NNE,26,2.0,6.0,74,0.00,,,0.00,weatherlink.com 1.10,2013-03-25 11:38:00,
2013-03-25 07:53:00,30.5,23.0,29.66,NNE,13,2.0,2.0,75,0.00,,,0.00,weatherlink.com 1.10,2013-03-25 11:53:00,
2013-03-25 08:08:00,30.4,24.0,29.67,North,356,2.0,3.0,76,0.00,,,0.00,weatherlink.com 1.10,2013-03-25 12:08:00,
2013-03-25 08:23:00,30.0,23.0,29.67,NW,319,1.0,4.0,76,0.00,,,0.00,weatherlink.com 1.10,2013-03-25 12:23:00,
2013-03-25 08:29:00,30.0,23.4,29.68,ENE,64,2.0,4.0,76,0.00,,,0.00,Wunderground v.1.15,2013-03-25 12:29:00,
2013-03-25 08:34:00,30.1,24.1,29.68,NW,323,1.0,1.0,78,0.00,,,0.00,Wunderground v.1.15,2013-03-25 12:34:00,
2013-03-25 08:40:00,30.1,22.5,29.68,West,264,2.0,4.0,73,0.00,,,0.00,Wunderground v.1.15,2013-03-25 12:40:00,
2013-03-25 08:46:00,30.1,22.2,29.68,WSW,255,2.0,4.0,72,0.00,,,0.00,Wunderground v.1.15,2013-03-25 12:46:00,
2013-03-25 08:52:00,30.2,22.6,29.68,NW,326,2.0,4.0,73,0.00,,,0.00,Wunderground v.1.15,2013-03-25 12:52:00,
2013-03-25 08:57:00,30.4,22.1,29.68,NNW,328,2.0,4.0,71,0.00,,,0.00,Wunderground v.1.15,2013-03-25 12:57:00,
2013-03-25 09:03:00,30.5,21.9,29.69,NNE,19,3.0,6.0,70,0.00,,,0.00,Wunderground v.1.15,2013-03-25 13:03:00,
2013-03-25 09:09:00,30.6,21.3,29.69,NW,321,4.0,6.0,68,0.00,,,0.00,Wunderground v.1.15,2013-03-25 13:09:00,
2013-03-25 09:15:00,30.8,22.2,29.68,NE,47,3.0,4.0,70,0.00,,,0.00,Wunderground v.1.15,2013-03-25 13:15:00,
2013-03-25 09:20:00,31.2,22.5,29.69,North,9,2.0,4.0,70,0.00,,,0.00,Wunderground v.1.15,2013-03-25 13:20:00,
2013-03-25 09:25:00,31.5,22.8,29.69,NNW,347,3.0,9.0,70,0.00,,,0.00,Wunderground v.1.15,2013-03-25 13:25:00,
2013-03-25 09:30:00,31.7,22.3,29.69,NNE,23,4.0,4.0,68,0.00,,,0.00,Wunderground v.1.15,2013-03-25 13:30:00,
2013-03-25 09:36:00,31.5,21.4,29.69,NW,317,4.0,7.0,66,0.00,,,0.00,Wunderground v.1.15,2013-03-25 13:36:00,
2013-03-25 09:41:00,31.6,22.2,29.69,NNW,343,4.0,4.0,68,0.00,,,0.00,Wunderground v.1.15,2013-03-25 13:41:00,
2013-03-25 09:47:00,32.0,22.6,29.69,North,350,2.0,4.0,68,0.00,,,0.00,Wunderground v.1.15,2013-03-25 13:47:00,
2013-03-25 09:53:00,32.3,22.9,29.69,NNW,345,2.0,4.0,68,0.00,,,0.00,Wunderground v.1.15,2013-03-25 13:53:00,
2013-03-25 09:59:00,32.3,22.9,29.70,NNW,339,2.0,4.0,68,0.00,,,0.00,Wunderground v.1.15,2013-03-25 13:59:00,
2013-03-25 10:05:00,32.3,23.3,29.70,North,354,2.0,3.0,69,0.00,,,0.00,Wunderground v.1.15,2013-03-25 14:05:00,
2013-03-25 10:10:00,32.4,23.0,29.70,North,11,2.0,3.0,68,0.00,,,0.00,Wunderground v.1.15,2013-03-25 14:10:00,
2013-03-25 10:17:00,32.4,23.4,29.70,NE,44,3.0,4.0,69,0.00,,,0.00,Wunderground v.1.15,2013-03-25 14:17:00,
2013-03-25 10:23:00,32.7,24.0,29.70,North,6,2.0,5.0,69,0.00,,,0.00,weatherlink.com 1.10,2013-03-25 14:23:00,
2013-03-25 10:28:00,32.8,23.0,29.70,NNE,16,2.0,4.0,67,0.00,,,0.00,Wunderground v.1.15,2013-03-25 14:28:00,
2013-03-25 10:33:00,32.8,22.7,29.70,ENE,57,2.0,3.0,66,0.00,,,0.00,Wunderground v.1.15,2013-03-25 14:33:00,
2013-03-25 10:38:00,33.1,23.0,29.70,NW,317,1.0,4.0,66,0.00,,,0.00,Wunderground v.1.15,2013-03-25 14:38:00,
2013-03-25 10:44:00,33.2,22.3,29.71,NE,38,1.0,5.0,64,0.00,,,0.00,Wunderground v.1.15,2013-03-25 14:44:00,
2013-03-25 10:49:00,33.5,22.2,29.70,NE,49,2.0,5.0,63,0.00,,,0.00,Wunderground v.1.15,2013-03-25 14:49:00,
2013-03-25 10:55:00,33.9,22.0,29.70,North,1,2.0,4.0,62,0.00,,,0.00,weatherlink.com 1.10,2013-03-25 14:55:00,
2013-03-25 11:00:00,34.1,21.7,29.70,North,353,2.0,2.0,60,0.00,,,0.00,Wunderground v.1.15,2013-03-25 15:00:00,
2013-03-25 11:06:00,34.5,22.0,29.71,North,357,3.0,4.0,60,0.00,,,0.00,Wunderground v.1.15,2013-03-25 15:06:00,
2013-03-25 11:12:00,34.4,21.5,29.71,NNW,340,4.0,4.0,59,0.00,,,0.00,Wunderground v.1.15,2013-03-25 15:12:00,
2013-03-25 11:18:00,34.6,20.9,29.71,NNE,18,3.0,5.0,57,0.00,,,0.00,Wunderground v.1.15,2013-03-25 15:18:00,
2013-03-25 11:23:00,34.5,22.8,29.71,North,349,3.0,5.0,62,0.00,,,0.00,Wunderground v.1.15,2013-03-25 15:23:00,
2013-03-25 11:28:00,34.6,21.7,29.72,NW,311,3.0,5.0,59,0.00,,,0.00,Wunderground v.1.15,2013-03-25 15:28:00,
2013-03-25 11:34:00,34.4,20.7,29.73,NNE,20,2.0,3.0,57,0.00,,,0.00,Wunderground v.1.15,2013-03-25 15:34:00,
2013-03-25 11:40:00,34.3,21.0,29.73,North,6,2.0,2.0,58,0.00,,,0.00,Wunderground v.1.15,2013-03-25 15:40:00,
2013-03-25 11:45:00,34.3,21.8,29.73,SE,127,2.0,6.0,60,0.00,,,0.00,Wunderground v.1.15,2013-03-25 15:45:00,
2013-03-25 11:51:00,34.4,21.5,29.73,NE,51,2.0,6.0,59,0.00,,,0.00,Wunderground v.1.15,2013-03-25 15:51:00,
2013-03-25 11:56:00,34.2,21.4,29.74,NNE,27,2.0,6.0,59,0.00,,,0.00,Wunderground v.1.15,2013-03-25 15:56:00,
2013-03-25 12:02:00,34.1,22.8,29.74,NE,54,3.0,3.0,63,0.00,,,0.00,Wunderground v.1.15,2013-03-25 16:02:00,
2013-03-25 12:07:00,34.2,22.1,29.74,NNW,336,2.0,5.0,61,0.00,,,0.00,Wunderground v.1.15,2013-03-25 16:07:00,
2013-03-25 12:13:00,34.3,22.2,29.75,NE,56,3.0,7.0,61,0.00,,,0.00,Wunderground v.1.15,2013-03-25 16:13:00,
2013-03-25 12:19:00,33.8,22.1,29.75,NNW,328,4.0,7.0,62,0.00,,,0.00,Wunderground v.1.15,2013-03-25 16:19:00,
2013-03-25 12:25:00,34.0,23.1,29.75,NNE,12,2.0,5.0,64,0.00,,,0.00,Wunderground v.1.15,2013-03-25 16:25:00,
2013-03-25 12:30:00,34.2,22.9,29.75,NNW,337,2.0,2.0,63,0.00,,,0.00,Wunderground v.1.15,2013-03-25 16:30:00,
2013-03-25 12:36:00,34.3,22.6,29.75,NE,34,3.0,6.0,62,0.00,,,0.00,Wunderground v.1.15,2013-03-25 16:36:00,
2013-03-25 12:42:00,34.2,22.5,29.75,NNE,15,3.0,5.0,62,0.00,,,0.00,Wunderground v.1.15,2013-03-25 16:42:00,
2013-03-25 12:48:00,33.8,21.0,29.75,NNW,337,4.0,6.0,59,0.00,,,0.00,Wunderground v.1.15,2013-03-25 16:48:00,
2013-03-25 12:54:00,34.0,22.0,29.75,NNE,25,1.0,7.0,63,0.00,,,0.00,weatherlink.com 1.10,2013-03-25 16:54:00,
2013-03-25 13:00:00,34.3,21.8,29.75,NNW,340,3.0,3.0,60,0.00,,,0.00,Wunderground v.1.15,2013-03-25 17:00:00,
2013-03-25 13:06:00,34.1,22.4,29.75,NNE,14,4.0,5.0,62,0.00,,,0.00,Wunderground v.1.15,2013-03-25 17:06:00,
2013-03-25 13:12:00,34.5,22.0,29.75,NNW,332,3.0,4.0,60,0.00,,,0.00,Wunderground v.1.15,2013-03-25 17:12:00,
2013-03-25 13:18:00,34.2,21.4,29.75,North,1,3.0,7.0,59,0.00,,,0.00,Wunderground v.1.15,2013-03-25 17:18:00,
2013-03-25 13:23:00,34.1,20.9,29.75,NNE,16,4.0,5.0,58,0.00,,,0.00,Wunderground v.1.15,2013-03-25 17:23:00,
2013-03-25 13:29:00,34.3,20.6,29.75,NNW,341,4.0,6.0,57,0.00,,,0.00,Wunderground v.1.15,2013-03-25 17:29:00,
2013-03-25 13:35:00,34.5,21.2,29.75,North,356,4.0,7.0,58,0.00,,,0.00,Wunderground v.1.15,2013-03-25 17:35:00,
2013-03-25 13:40:00,34.2,20.1,29.75,North,356,7.0,8.0,56,0.00,,,0.00,Wunderground v.1.15,2013-03-25 17:40:00,
2013-03-25 13:46:00,34.3,20.6,29.75,NNW,333,7.0,8.0,57,0.00,,,0.00,Wunderground v.1.15,2013-03-25 17:46:00,
2013-03-25 13:51:00,34.5,20.8,29.75,North,355,4.0,5.0,57,0.00,,,0.00,Wunderground v.1.15,2013-03-25 17:51:00,
2013-03-25 13:57:00,35.0,21.3,29.75,North,358,4.0,7.0,57,0.00,,,0.00,Wunderground v.1.15,2013-03-25 17:57:00,
2013-03-25 14:03:00,34.8,20.3,29.75,North,10,6.0,9.0,55,0.00,,,0.00,Wunderground v.1.15,2013-03-25 18:03:00,
2013-03-25 14:09:00,34.7,20.0,29.75,NE,41,4.0,11.0,56,0.00,,,0.00,weatherlink.com 1.10,2013-03-25 18:09:00,
2013-03-25 14:15:00,35.2,20.6,29.75,North,5,6.0,7.0,55,0.00,,,0.00,Wunderground v.1.15,2013-03-25 18:15:00,
2013-03-25 14:20:00,35.5,20.9,29.75,SW,217,4.0,4.0,55,0.00,,,0.00,Wunderground v.1.15,2013-03-25 18:20:00,
2013-03-25 14:25:00,35.8,21.0,29.75,NNE,12,3.0,9.0,55,0.00,,,0.00,weatherlink.com 1.10,2013-03-25 18:25:00,
2013-03-25 14:31:00,36.0,20.9,29.75,North,351,4.0,8.0,54,0.00,,,0.00,Wunderground v.1.15,2013-03-25 18:31:00,
2013-03-25 14:36:00,35.8,21.2,29.74,NNW,345,5.0,8.0,55,0.00,,,0.00,Wunderground v.1.15,2013-03-25 18:36:00,
2013-03-25 14:42:00,35.9,21.7,29.74,NNE,18,5.0,7.0,56,0.00,,,0.00,Wunderground v.1.15,2013-03-25 18:42:00,
2013-03-25 14:47:00,35.9,20.9,29.75,North,349,6.0,9.0,54,0.00,,,0.00,Wunderground v.1.15,2013-03-25 18:47:00,
2013-03-25 14:53:00,36.0,21.4,29.75,North,8,6.0,7.0,55,0.00,,,0.00,Wunderground v.1.15,2013-03-25 18:53:00,
2013-03-25 14:58:00,36.3,21.2,29.76,NNE,13,5.0,7.0,54,0.00,,,0.00,Wunderground v.1.15,2013-03-25 18:58:00,
2013-03-25 15:04:00,36.0,20.9,29.75,North,355,6.0,7.0,54,0.00,,,0.00,Wunderground v.1.15,2013-03-25 19:04:00,
2013-03-25 15:10:00,35.8,21.6,29.76,NNE,16,6.0,8.0,56,0.00,,,0.00,Wunderground v.1.15,2013-03-25 19:10:00,
2013-03-25 15:15:00,35.5,20.5,29.75,North,351,6.0,8.0,54,0.00,,,0.00,Wunderground v.1.15,2013-03-25 19:15:00,
2013-03-25 15:20:00,35.9,22.1,29.75,North,1,6.0,6.0,57,0.00,,,0.00,Wunderground v.1.15,2013-03-25 19:20:00,
2013-03-25 15:26:00,35.4,21.7,29.76,NNE,23,6.0,12.0,57,0.00,,,0.00,Wunderground v.1.15,2013-03-25 19:26:00,
2013-03-25 15:32:00,35.2,20.6,29.77,North,358,8.0,10.0,55,0.00,,,0.00,Wunderground v.1.15,2013-03-25 19:32:00,
2013-03-25 15:38:00,34.9,20.4,29.77,North,358,8.0,10.0,55,0.00,,,0.00,Wunderground v.1.15,2013-03-25 19:38:00,
2013-03-25 15:43:00,35.0,21.7,29.77,North,8,8.0,8.0,58,0.00,,,0.00,Wunderground v.1.15,2013-03-25 19:43:00,
2013-03-25 15:48:00,35.1,21.4,29.76,NNW,343,7.0,8.0,57,0.00,,,0.00,Wunderground v.1.15,2013-03-25 19:48:00,
2013-03-25 15:54:00,35.1,21.8,29.77,NNW,337,6.0,8.0,58,0.00,,,0.00,Wunderground v.1.15,2013-03-25 19:54:00,
2013-03-25 16:00:00,35.0,20.9,29.77,North,10,6.0,6.0,56,0.00,,,0.00,Wunderground v.1.15,2013-03-25 20:00:00,
2013-03-25 16:06:00,35.5,22.6,29.77,NNW,347,6.0,8.0,59,0.00,,,0.00,Wunderground v.1.15,2013-03-25 20:06:00,
2013-03-25 16:11:00,35.5,21.0,29.77,North,349,5.0,15.0,55,0.00,,,0.00,weatherlink.com 1.10,2013-03-25 20:11:00,
2013-03-25 16:17:00,35.5,20.5,29.78,NNE,22,7.0,11.0,54,0.00,,,0.00,Wunderground v.1.15,2013-03-25 20:17:00,
2013-03-25 16:23:00,35.5,22.2,29.78,NW,319,5.0,7.0,58,0.00,,,0.00,Wunderground v.1.15,2013-03-25 20:23:00,
2013-03-25 16:29:00,35.6,20.1,29.78,NNW,345,6.0,10.0,53,0.00,,,0.00,Wunderground v.1.15,2013-03-25 20:29:00,
2013-03-25 16:34:00,35.7,21.5,29.79,North,11,7.0,13.0,56,0.00,,,0.00,Wunderground v.1.15,2013-03-25 20:34:00,
2013-03-25 16:40:00,35.9,21.0,29.79,North,1,3.0,12.0,55,0.00,,,0.00,weatherlink.com 1.10,2013-03-25 20:40:00,
2013-03-25 16:45:00,35.4,20.8,29.79,North,359,5.0,11.0,55,0.00,,,0.00,Wunderground v.1.15,2013-03-25 20:45:00,
2013-03-25 16:52:00,35.6,22.3,29.79,NNE,23,4.0,11.0,58,0.00,,,0.00,Wunderground v.1.15,2013-03-25 20:52:00,
2013-03-25 16:58:00,35.3,21.2,29.80,NNE,20,4.0,11.0,56,0.00,,,0.00,Wunderground v.1.15,2013-03-25 20:58:00,
2013-03-25 17:03:00,35.2,21.9,29.80,North,11,5.0,8.0,58,0.00,,,0.00,Wunderground v.1.15,2013-03-25 21:03:00,
2013-03-25 17:09:00,35.1,21.4,29.80,North,5,6.0,8.0,57,0.00,,,0.00,Wunderground v.1.15,2013-03-25 21:09:00,
2013-03-25 17:14:00,34.5,21.6,29.80,North,360,6.0,9.0,59,0.00,,,0.00,Wunderground v.1.15,2013-03-25 21:14:00,
2013-03-25 17:20:00,34.5,22.0,29.80,NNE,12,5.0,5.0,60,0.00,,,0.00,Wunderground v.1.15,2013-03-25 21:20:00,
2013-03-25 17:26:00,34.2,21.0,29.81,North,356,8.0,9.0,60,0.00,,,0.00,weatherlink.com 1.10,2013-03-25 21:26:00,
2013-03-25 17:31:00,33.6,23.8,29.82,NW,326,8.0,8.0,67,0.00,,,0.00,Wunderground v.1.15,2013-03-25 21:31:00,
2013-03-25 17:36:00,33.2,24.8,29.83,NNW,336,7.0,8.0,71,0.00,,,0.00,Wunderground v.1.15,2013-03-25 21:36:00,
2013-03-25 17:42:00,32.8,25.4,29.83,NE,47,5.0,7.0,74,0.00,,,0.00,Wunderground v.1.15,2013-03-25 21:42:00,
2013-03-25 17:47:00,32.8,24.4,29.83,NNW,335,5.0,7.0,71,0.00,,,0.00,Wunderground v.1.15,2013-03-25 21:47:00,
2013-03-25 17:53:00,32.8,23.0,29.82,North,11,5.0,7.0,67,0.00,,,0.00,Wunderground v.1.15,2013-03-25 21:53:00,
2013-03-25 17:59:00,33.0,23.2,29.83,North,357,4.0,7.0,67,0.00,,,0.00,Wunderground v.1.15,2013-03-25 21:59:00,
2013-03-25 18:05:00,33.3,22.4,29.83,NNW,347,4.0,6.0,64,0.00,,,0.00,Wunderground v.1.15,2013-03-25 22:05:00,
2013-03-25 18:10:00,33.4,22.1,29.84,NNE,18,5.0,5.0,63,0.00,,,0.00,Wunderground v.1.15,2013-03-25 22:10:00,
2013-03-25 18:17:00,32.7,22.9,29.84,North,353,4.0,6.0,67,0.00,,,0.00,Wunderground v.1.15,2013-03-25 22:17:00,
2013-03-25 18:22:00,32.7,22.9,29.84,North,356,4.0,4.0,67,0.00,,,0.00,Wunderground v.1.15,2013-03-25 22:22:00,
2013-03-25 18:28:00,32.9,22.0,29.84,NNE,15,3.0,9.0,64,0.00,,,0.00,weatherlink.com 1.10,2013-03-25 22:28:00,
2013-03-25 18:33:00,33.0,21.8,29.85,NNW,339,4.0,7.0,63,0.00,,,0.00,Wunderground v.1.15,2013-03-25 22:33:00,
2013-03-25 18:38:00,32.9,21.3,29.85,North,6,4.0,7.0,62,0.00,,,0.00,Wunderground v.1.15,2013-03-25 22:38:00,
2013-03-25 18:44:00,32.8,21.6,29.85,North,357,4.0,6.0,63,0.00,,,0.00,Wunderground v.1.15,2013-03-25 22:44:00,
2013-03-25 18:50:00,32.9,22.0,29.86,North,11,4.0,7.0,64,0.00,,,0.00,Wunderground v.1.15,2013-03-25 22:50:00,
2013-03-25 18:55:00,32.8,21.2,29.86,NNE,18,5.0,11.0,62,0.00,,,0.00,Wunderground v.1.15,2013-03-25 22:55:00,
2013-03-25 19:00:00,32.8,21.2,29.87,NNE,12,5.0,6.0,62,0.00,,,0.00,Wunderground v.1.15,2013-03-25 23:00:00,
2013-03-25 19:06:00,32.6,20.6,29.87,North,349,5.0,11.0,61,0.00,,,0.00,Wunderground v.1.15,2013-03-25 23:06:00,
2013-03-25 19:12:00,32.4,20.4,29.87,NE,37,5.0,7.0,61,0.00,,,0.00,Wunderground v.1.15,2013-03-25 23:12:00,
2013-03-25 19:17:00,32.2,20.2,29.87,North,349,5.0,7.0,61,0.00,,,0.00,Wunderground v.1.15,2013-03-25 23:17:00,
2013-03-25 19:23:00,32.1,20.9,29.88,North,8,4.0,5.0,63,0.00,,,0.00,Wunderground v.1.15,2013-03-25 23:23:00,
2013-03-25 19:29:00,32.0,21.2,29.88,NNE,26,5.0,6.0,64,0.00,,,0.00,Wunderground v.1.15,2013-03-25 23:29:00,
2013-03-25 19:34:00,31.8,21.0,29.88,NNW,347,5.0,5.0,64,0.00,,,0.00,Wunderground v.1.15,2013-03-25 23:34:00,
2013-03-25 19:40:00,31.6,21.5,29.89,NNW,345,5.0,6.0,66,0.00,,,0.00,Wunderground v.1.15,2013-03-25 23:40:00,
2013-03-25 19:45:00,31.4,21.3,29.89,North,349,5.0,11.0,66,0.00,,,0.00,Wunderground v.1.15,2013-03-25 23:45:00,
2013-03-25 19:52:00,31.2,21.5,29.89,North,353,4.0,11.0,67,0.00,,,0.00,Wunderground v.1.15,2013-03-25 23:52:00,
2013-03-25 19:57:00,31.1,21.1,29.90,North,9,5.0,11.0,66,0.00,,,0.00,Wunderground v.1.15,2013-03-25 23:57:00,
2013-03-25 20:02:00,31.0,21.0,29.90,NE,46,5.0,11.0,66,0.00,,,0.00,Wunderground v.1.15,2013-03-26 00:02:00,
2013-03-25 20:08:00,31.0,21.3,29.90,North,10,4.0,11.0,67,0.00,,,0.00,Wunderground v.1.15,2013-03-26 00:08:00,
2013-03-25 20:13:00,30.9,21.9,29.90,NE,41,5.0,11.0,69,0.00,,,0.00,Wunderground v.1.15,2013-03-26 00:13:00,
2013-03-25 20:41:00,30.6,22.0,29.91,North,11,6.0,10.0,69,0.00,,,0.00,weatherlink.com 1.10,2013-03-26 00:41:00,
2013-03-25 20:56:00,30.7,21.0,29.92,NNE,32,3.0,9.0,68,0.00,,,0.00,weatherlink.com 1.10,2013-03-26 00:56:00,
2013-03-25 21:11:00,30.8,21.0,29.93,NW,318,4.0,8.0,67,0.00,,,0.00,weatherlink.com 1.10,2013-03-26 01:11:00,
2013-03-25 21:26:00,30.7,21.0,29.93,NE,53,3.0,8.0,68,0.00,,,0.00,weatherlink.com 1.10,2013-03-26 01:26:00,
2013-03-25 21:41:00,30.6,21.0,29.94,NE,38,12.0,12.0,68,0.00,,,0.00,weatherlink.com 1.10,2013-03-26 01:41:00,
2013-03-25 21:56:00,30.4,21.0,29.95,NNW,330,3.0,8.0,69,0.00,,,0.00,weatherlink.com 1.10,2013-03-26 01:56:00,
2013-03-25 22:11:00,30.2,22.0,29.95,NNW,340,4.0,11.0,70,0.00,,,0.00,weatherlink.com 1.10,2013-03-26 02:11:00,
2013-03-25 22:26:00,30.0,22.0,29.96,NNE,16,5.0,6.0,72,0.00,,,0.00,weatherlink.com 1.10,2013-03-26 02:26:00,
2013-03-25 22:41:00,29.8,22.0,29.96,NW,321,4.0,9.0,73,0.00,,,0.00,weatherlink.com 1.10,2013-03-26 02:41:00,
2013-03-25 22:56:00,29.6,22.0,29.97,NE,34,3.0,11.0,73,0.00,,,0.00,weatherlink.com 1.10,2013-03-26 02:56:00,
2013-03-25 23:11:00,29.6,22.0,29.98,NNW,342,6.0,11.0,73,0.00,,,0.00,weatherlink.com 1.10,2013-03-26 03:11:00,
2013-03-25 23:41:00,29.0,22.0,29.99,North,349,5.0,7.0,76,0.00,,,0.00,weatherlink.com 1.10,2013-03-26 03:41:00,
2013-03-25 23:56:00,28.8,23.0,29.99,NE,37,2.0,7.0,79,0.00,,,0.00,weatherlink.com 1.10,2013-03-26 03:56:00,